sensor_id;sensor_type;location;lat;lon;timestamp;pressure;altitude;pressure_sealevel;temperature;humidity
16834;BME280;8533;48.426;10.868;2023-04-01T00:00:12;94895.17;;;7.36;100.00
16834;BME280;8533;48.426;10.868;2023-04-01T00:02:40;94888.67;;;7.36;100.00
16834;BME280;8533;48.426;10.868;2023-04-01T00:05:08;94900.36;;;7.33;100.00
16834;BME280;8533;48.426;10.868;2023-04-01T00:07:37;94898.52;;;7.26;100.00
16834;BME280;8533;48.426;10.868;2023-04-01T00:10:09;94901.09;;;7.23;100.00
16834;BME280;8533;48.426;10.868;2023-04-01T00:12:38;94897.43;;;7.17;100.00
16834;BME280;8533;48.426;10.868;2023-04-01T00:15:08;94886.49;;;7.15;100.00
16834;BME280;8533;48.426;10.868;2023-04-01T00:17:36;94889.61;;;7.14;100.00
16834;BME280;8533;48.426;10.868;2023-04-01T00:20:05;94891.96;;;7.16;100.00
16834;BME280;8533;48.426;10.868;2023-04-01T00:22:34;94892.48;;;7.15;100.00
16834;BME280;8533;48.426;10.868;2023-04-01T00:25:02;94890.19;;;7.21;100.00
16834;BME280;8533;48.426;10.868;2023-04-01T00:27:30;94888.62;;;7.20;100.00
16834;BME280;8533;48.426;10.868;2023-04-01T00:29:58;94883.94;;;7.25;100.00
16834;BME280;8533;48.426;10.868;2023-04-01T00:32:25;94889.66;;;7.24;100.00
16834;BME280;8533;48.426;10.868;2023-04-01T00:34:53;94893.83;;;7.25;100.00
16834;BME280;8533;48.426;10.868;2023-04-01T00:37:20;94891.49;;;7.26;100.00
16834;BME280;8533;48.426;10.868;2023-04-01T00:39:49;94885.26;;;7.27;100.00
16834;BME280;8533;48.426;10.868;2023-04-01T00:42:16;94871.44;;;7.22;100.00
16834;BME280;8533;48.426;10.868;2023-04-01T00:44:51;94873.31;;;7.29;100.00
16834;BME280;8533;48.426;10.868;2023-04-01T00:47:15;94878.23;;;7.31;100.00
16834;BME280;8533;48.426;10.868;2023-04-01T00:49:45;94883.95;;;7.30;100.00
16834;BME280;8533;48.426;10.868;2023-04-01T00:52:17;94877.73;;;7.28;100.00
16834;BME280;8533;48.426;10.868;2023-04-01T00:54:46;94883.69;;;7.26;100.00
16834;BME280;8533;48.426;10.868;2023-04-01T00:57:23;94875.11;;;7.26;100.00
16834;BME280;8533;48.426;10.868;2023-04-01T00:59:50;94880.80;;;7.23;100.00
16834;BME280;8533;48.426;10.868;2023-04-01T01:02:19;94882.62;;;7.22;100.00
16834;BME280;8533;48.426;10.868;2023-04-01T01:04:47;94882.13;;;7.25;100.00
16834;BME280;8533;48.426;10.868;2023-04-01T01:10:15;94880.59;;;7.30;100.00
16834;BME280;8533;48.426;10.868;2023-04-01T01:12:40;94876.41;;;7.31;100.00
16834;BME280;8533;48.426;10.868;2023-04-01T01:26:25;94866.80;;;7.32;100.00
16834;BME280;8533;48.426;10.868;2023-04-01T01:29:28;94867.33;;;7.34;100.00
16834;BME280;8533;48.426;10.868;2023-04-01T01:32:23;94871.99;;;7.32;100.00
16834;BME280;8533;48.426;10.868;2023-04-01T01:37:17;94869.64;;;7.30;100.00
16834;BME280;8533;48.426;10.868;2023-04-01T01:39:50;94869.14;;;7.28;100.00
16834;BME280;8533;48.426;10.868;2023-04-01T01:42:18;94857.70;;;7.29;100.00
16834;BME280;8533;48.426;10.868;2023-04-01T01:44:49;94860.03;;;7.28;100.00
16834;BME280;8533;48.426;10.868;2023-04-01T01:47:19;94857.92;;;7.22;100.00
16834;BME280;8533;48.426;10.868;2023-04-01T01:49:48;94850.38;;;7.18;100.00
16834;BME280;8533;48.426;10.868;2023-04-01T01:52:18;94861.29;;;7.13;100.00
16834;BME280;8533;48.426;10.868;2023-04-01T01:54:53;94854.50;;;7.09;100.00
16834;BME280;8533;48.426;10.868;2023-04-01T01:57:23;94861.75;;;7.02;100.00
16834;BME280;8533;48.426;10.868;2023-04-01T01:59:50;94862.27;;;7.02;100.00
16834;BME280;8533;48.426;10.868;2023-04-01T02:02:20;94859.14;;;7.00;100.00
16834;BME280;8533;48.426;10.868;2023-04-01T02:04:50;94874.47;;;6.96;100.00
16834;BME280;8533;48.426;10.868;2023-04-01T02:07:23;94867.70;;;6.95;100.00
16834;BME280;8533;48.426;10.868;2023-04-01T02:09:51;94854.94;;;6.91;100.00
16834;BME280;8533;48.426;10.868;2023-04-01T02:12:20;94865.59;;;6.87;100.00
16834;BME280;8533;48.426;10.868;2023-04-01T02:15:06;94869.71;;;6.83;100.00
16834;BME280;8533;48.426;10.868;2023-04-01T02:17:32;94864.52;;;6.83;100.00
16834;BME280;8533;48.426;10.868;2023-04-01T02:20:07;94873.34;;;6.82;100.00
16834;BME280;8533;48.426;10.868;2023-04-01T02:22:35;94872.31;;;6.83;100.00
16834;BME280;8533;48.426;10.868;2023-04-01T02:25:05;94862.16;;;6.81;100.00
16834;BME280;8533;48.426;10.868;2023-04-01T02:27:33;94875.18;;;6.84;100.00
16834;BME280;8533;48.426;10.868;2023-04-01T02:30:01;94880.11;;;6.80;100.00
16834;BME280;8533;48.426;10.868;2023-04-01T02:32:29;94883.98;;;6.78;100.00
16834;BME280;8533;48.426;10.868;2023-04-01T02:34:58;94877.72;;;6.74;100.00
16834;BME280;8533;48.426;10.868;2023-04-01T02:37:28;94880.30;;;6.69;100.00
16834;BME280;8533;48.426;10.868;2023-04-01T02:40:06;94889.91;;;6.68;100.00
16834;BME280;8533;48.426;10.868;2023-04-01T02:42:29;94890.15;;;6.67;100.00
16834;BME280;8533;48.426;10.868;2023-04-01T02:44:56;94885.73;;;6.67;100.00
16834;BME280;8533;48.426;10.868;2023-04-01T02:47:24;94877.95;;;6.65;100.00
16834;BME280;8533;48.426;10.868;2023-04-01T02:49:51;94889.10;;;6.63;100.00
16834;BME280;8533;48.426;10.868;2023-04-01T02:52:20;94882.58;;;6.60;100.00
16834;BME280;8533;48.426;10.868;2023-04-01T02:54:48;94886.75;;;6.61;100.00
16834;BME280;8533;48.426;10.868;2023-04-01T02:57:15;94886.45;;;6.58;100.00
16834;BME280;8533;48.426;10.868;2023-04-01T02:59:43;94892.95;;;6.55;100.00
16834;BME280;8533;48.426;10.868;2023-04-01T03:02:10;94890.05;;;6.51;100.00
16834;BME280;8533;48.426;10.868;2023-04-01T03:04:38;94896.30;;;6.53;100.00
16834;BME280;8533;48.426;10.868;2023-04-01T03:07:06;94891.88;;;6.48;100.00
16834;BME280;8533;48.426;10.868;2023-04-01T03:09:34;94900.18;;;6.48;100.00
16834;BME280;8533;48.426;10.868;2023-04-01T03:12:02;94897.28;;;6.44;100.00
16834;BME280;8533;48.426;10.868;2023-04-01T03:14:30;94899.37;;;6.45;100.00
16834;BME280;8533;48.426;10.868;2023-04-01T03:16:57;94891.04;;;6.40;100.00
16834;BME280;8533;48.426;10.868;2023-04-01T03:19:25;94899.34;;;6.42;100.00
16834;BME280;8533;48.426;10.868;2023-04-01T03:21:52;94895.95;;;6.42;100.00
16834;BME280;8533;48.426;10.868;2023-04-01T03:24:20;94898.05;;;6.42;100.00
16834;BME280;8533;48.426;10.868;2023-04-01T03:26:48;94907.19;;;6.47;100.00
16834;BME280;8533;48.426;10.868;2023-04-01T03:29:15;94904.31;;;6.49;100.00
16834;BME280;8533;48.426;10.868;2023-04-01T03:31:43;94904.59;;;6.50;100.00
16834;BME280;8533;48.426;10.868;2023-04-01T03:34:10;94909.51;;;6.49;100.00
16834;BME280;8533;48.426;10.868;2023-04-01T03:36:38;94918.60;;;6.49;100.00
16834;BME280;8533;48.426;10.868;2023-04-01T03:39:05;94928.99;;;6.46;100.00
16834;BME280;8533;48.426;10.868;2023-04-01T03:41:36;94927.39;;;6.43;100.00
16834;BME280;8533;48.426;10.868;2023-04-01T03:44:02;94925.09;;;6.46;100.00
16834;BME280;8533;48.426;10.868;2023-04-01T03:46:29;94925.85;;;6.44;100.00
16834;BME280;8533;48.426;10.868;2023-04-01T03:48:57;94921.17;;;6.44;100.00
16834;BME280;8533;48.426;10.868;2023-04-01T03:51:24;94925.31;;;6.42;100.00
16834;BME280;8533;48.426;10.868;2023-04-01T03:53:52;94923.23;;;6.39;100.00
16834;BME280;8533;48.426;10.868;2023-04-01T03:56:19;94920.66;;;6.44;100.00
16834;BME280;8533;48.426;10.868;2023-04-01T03:58:47;94924.31;;;6.46;100.00
16834;BME280;8533;48.426;10.868;2023-04-01T04:01:19;94918.63;;;6.51;100.00
16834;BME280;8533;48.426;10.868;2023-04-01T04:03:44;94922.77;;;6.47;100.00
16834;BME280;8533;48.426;10.868;2023-04-01T04:06:13;94922.77;;;6.47;100.00
16834;BME280;8533;48.426;10.868;2023-04-01T04:08:41;94924.34;;;6.48;100.00
16834;BME280;8533;48.426;10.868;2023-04-01T04:11:09;94914.70;;;6.46;100.00
16834;BME280;8533;48.426;10.868;2023-04-01T04:13:36;94921.20;;;6.46;100.00
16834;BME280;8533;48.426;10.868;2023-04-01T04:16:04;94928.20;;;6.46;100.00
16834;BME280;8533;48.426;10.868;2023-04-01T04:18:32;94928.72;;;6.45;100.00
16834;BME280;8533;48.426;10.868;2023-04-01T04:20:59;94922.47;;;6.44;100.00
16834;BME280;8533;48.426;10.868;2023-04-01T04:23:27;94926.09;;;6.43;100.00
16834;BME280;8533;48.426;10.868;2023-04-01T04:26:07;94925.31;;;6.42;100.00
16834;BME280;8533;48.426;10.868;2023-04-01T04:28:34;94932.59;;;6.40;100.00
16834;BME280;8533;48.426;10.868;2023-04-01T04:31:01;94926.04;;;6.35;100.00
16834;BME280;8533;48.426;10.868;2023-04-01T04:33:31;94927.85;;;6.32;100.00
16834;BME280;8533;48.426;10.868;2023-04-01T04:36:01;94930.63;;;6.23;100.00
16834;BME280;8533;48.426;10.868;2023-04-01T04:38:29;94928.76;;;6.19;100.00
16834;BME280;8533;48.426;10.868;2023-04-01T04:40:56;94932.62;;;6.13;100.00
16834;BME280;8533;48.426;10.868;2023-04-01T04:43:23;94924.80;;;6.11;100.00
16834;BME280;8533;48.426;10.868;2023-04-01T04:45:51;94918.28;;;6.08;100.00
16834;BME280;8533;48.426;10.868;2023-04-01T04:48:19;94925.52;;;6.04;100.00
16834;BME280;8533;48.426;10.868;2023-04-01T04:50:50;94932.01;;;6.04;100.00
16834;BME280;8533;48.426;10.868;2023-04-01T04:53:19;94931.02;;;6.07;100.00
16834;BME280;8533;48.426;10.868;2023-04-01T04:55:48;94925.55;;;6.09;100.00
16834;BME280;8533;48.426;10.868;2023-04-01T04:58:17;94924.08;;;6.16;100.00
16834;BME280;8533;48.426;10.868;2023-04-01T05:00:45;94931.38;;;6.21;100.00
16834;BME280;8533;48.426;10.868;2023-04-01T05:03:13;94931.69;;;6.27;100.00
16834;BME280;8533;48.426;10.868;2023-04-01T05:05:47;94935.37;;;6.31;100.00
16834;BME280;8533;48.426;10.868;2023-04-01T05:08:11;94924.74;;;6.35;100.00
16834;BME280;8533;48.426;10.868;2023-04-01T05:10:38;94927.13;;;6.39;100.00
16834;BME280;8533;48.426;10.868;2023-04-01T05:13:07;94925.06;;;6.44;100.00
16834;BME280;8533;48.426;10.868;2023-04-01T05:15:35;94933.10;;;6.42;100.00
16834;BME280;8533;48.426;10.868;2023-04-01T05:18:04;94928.18;;;6.43;100.00
16834;BME280;8533;48.426;10.868;2023-04-01T05:20:31;94929.27;;;6.47;100.00
16834;BME280;8533;48.426;10.868;2023-04-01T05:22:59;94931.08;;;6.49;100.00
16834;BME280;8533;48.426;10.868;2023-04-01T05:25:28;94922.02;;;6.52;100.00
16834;BME280;8533;48.426;10.868;2023-04-01T05:27:55;94920.73;;;6.55;100.00
16834;BME280;8533;48.426;10.868;2023-04-01T05:30:22;94922.81;;;6.58;100.00
16834;BME280;8533;48.426;10.868;2023-04-01T05:32:50;94928.31;;;6.61;100.00
16834;BME280;8533;48.426;10.868;2023-04-01T05:35:17;94929.61;;;6.61;100.00
16834;BME280;8533;48.426;10.868;2023-04-01T05:37:45;94927.04;;;6.64;100.00
16834;BME280;8533;48.426;10.868;2023-04-01T05:40:12;94920.56;;;6.69;100.00
16834;BME280;8533;48.426;10.868;2023-04-01T05:42:40;94926.03;;;6.70;100.00
16834;BME280;8533;48.426;10.868;2023-04-01T05:45:08;94925.00;;;6.73;100.00
16834;BME280;8533;48.426;10.868;2023-04-01T05:47:36;94929.95;;;6.72;100.00
16834;BME280;8533;48.426;10.868;2023-04-01T05:50:03;94925.55;;;6.73;100.00
16834;BME280;8533;48.426;10.868;2023-04-01T05:52:31;94931.52;;;6.76;100.00
16834;BME280;8533;48.426;10.868;2023-04-01T05:54:58;94929.19;;;6.77;100.00
16834;BME280;8533;48.426;10.868;2023-04-01T05:57:26;94924.24;;;6.75;100.00
16834;BME280;8533;48.426;10.868;2023-04-01T05:59:54;94923.48;;;6.77;100.00
16834;BME280;8533;48.426;10.868;2023-04-01T06:02:21;94928.19;;;6.83;100.00
16834;BME280;8533;48.426;10.868;2023-04-01T06:04:49;94921.73;;;6.88;100.00
16834;BME280;8533;48.426;10.868;2023-04-01T06:07:18;94924.37;;;6.98;100.00
16834;BME280;8533;48.426;10.868;2023-04-01T06:09:46;94932.51;;;7.14;100.00
16834;BME280;8533;48.426;10.868;2023-04-01T06:15:24;94927.22;;;7.51;100.00
16834;BME280;8533;48.426;10.868;2023-04-01T06:20:50;94924.89;;;7.52;100.00
16834;BME280;8533;48.426;10.868;2023-04-01T06:26:30;94915.00;;;7.52;100.00
16834;BME280;8533;48.426;10.868;2023-04-01T06:29:05;94917.33;;;7.46;100.00
16834;BME280;8533;48.426;10.868;2023-04-01T06:31:52;94937.60;;;7.44;100.00
16834;BME280;8533;48.426;10.868;2023-04-01T06:34:49;94931.61;;;7.43;100.00
16834;BME280;8533;48.426;10.868;2023-04-01T06:40:41;94932.72;;;7.65;100.00
16834;BME280;8533;48.426;10.868;2023-04-01T06:46:02;94932.47;;;7.72;100.00
16834;BME280;8533;48.426;10.868;2023-04-01T06:49:03;94921.28;;;7.71;100.00
16834;BME280;8533;48.426;10.868;2023-04-01T06:51:26;94931.19;;;7.74;100.00
16834;BME280;8533;48.426;10.868;2023-04-01T06:54:14;94920.80;;;7.89;100.00
16834;BME280;8533;48.426;10.868;2023-04-01T06:56:21;94931.00;;;8.09;100.00
16834;BME280;8533;48.426;10.868;2023-04-01T06:58:53;94928.41;;;8.19;100.00
16834;BME280;8533;48.426;10.868;2023-04-01T07:01:51;94928.95;;;8.31;100.00
16834;BME280;8533;48.426;10.868;2023-04-01T07:04:23;94929.74;;;8.39;100.00
16834;BME280;8533;48.426;10.868;2023-04-01T07:06:54;94932.60;;;8.45;100.00
16834;BME280;8533;48.426;10.868;2023-04-01T07:09:25;94936.25;;;8.36;100.00
16834;BME280;8533;48.426;10.868;2023-04-01T07:11:56;94917.77;;;8.40;100.00
16834;BME280;8533;48.426;10.868;2023-04-01T07:14:35;94919.07;;;8.51;100.00
16834;BME280;8533;48.426;10.868;2023-04-01T07:22:41;94920.62;;;8.47;100.00
16834;BME280;8533;48.426;10.868;2023-04-01T07:25:21;94922.97;;;8.56;100.00
16834;BME280;8533;48.426;10.868;2023-04-01T07:27:46;94922.43;;;8.71;100.00
16834;BME280;8533;48.426;10.868;2023-04-01T07:30:16;94924.50;;;8.77;100.00
16834;BME280;8533;48.426;10.868;2023-04-01T07:32:52;94919.05;;;8.73;100.00
16834;BME280;8533;48.426;10.868;2023-04-01T07:35:23;94919.55;;;8.80;100.00
16834;BME280;8533;48.426;10.868;2023-04-01T07:38:16;94914.59;;;8.76;100.00
16834;BME280;8533;48.426;10.868;2023-04-01T07:43:53;94925.83;;;8.64;100.00
16834;BME280;8533;48.426;10.868;2023-04-01T07:49:07;94930.25;;;8.61;100.00
16834;BME280;8533;48.426;10.868;2023-04-01T07:51:54;94938.06;;;8.79;100.00
16834;BME280;8533;48.426;10.868;2023-04-01T07:57:01;94933.38;;;8.63;100.00
16834;BME280;8533;48.426;10.868;2023-04-01T07:59:40;94933.38;;;8.63;100.00
16834;BME280;8533;48.426;10.868;2023-04-01T08:04:56;94937.02;;;8.83;100.00
16834;BME280;8533;48.426;10.868;2023-04-01T08:12:43;94927.64;;;8.82;100.00
16834;BME280;8533;48.426;10.868;2023-04-01T08:15:16;94923.91;;;9.13;99.86
16834;BME280;8533;48.426;10.868;2023-04-01T08:18:04;94928.02;;;9.37;99.25
16834;BME280;8533;48.426;10.868;2023-04-01T08:20:50;94921.78;;;9.28;96.64
16834;BME280;8533;48.426;10.868;2023-04-01T08:23:22;94925.66;;;9.33;95.85
16834;BME280;8533;48.426;10.868;2023-04-01T08:26:02;94920.83;;;9.68;95.33
16834;BME280;8533;48.426;10.868;2023-04-01T08:28:33;94918.69;;;9.77;91.79
16834;BME280;8533;48.426;10.868;2023-04-01T08:31:20;94919.91;;;9.90;91.45
16834;BME280;8533;48.426;10.868;2023-04-01T08:33:45;94921.64;;;10.07;88.92
16834;BME280;8533;48.426;10.868;2023-04-01T08:36:26;94925.64;;;9.97;89.22
16834;BME280;8533;48.426;10.868;2023-04-01T08:38:57;94908.29;;;9.70;89.26
16834;BME280;8533;48.426;10.868;2023-04-01T08:41:29;94917.69;;;9.68;90.72
16834;BME280;8533;48.426;10.868;2023-04-01T08:52:30;94907.25;;;9.68;92.74
16834;BME280;8533;48.426;10.868;2023-04-01T08:57:50;94911.23;;;9.55;92.09
16834;BME280;8533;48.426;10.868;2023-04-01T09:06:26;94897.37;;;9.60;90.18
16834;BME280;8533;48.426;10.868;2023-04-01T09:12:14;94899.06;;;9.82;90.17
16834;BME280;8533;48.426;10.868;2023-04-01T09:20:49;94901.77;;;10.48;86.82
16834;BME280;8533;48.426;10.868;2023-04-01T09:23:00;94891.03;;;10.52;86.60
16834;BME280;8533;48.426;10.868;2023-04-01T09:25:29;94904.25;;;10.31;87.96
16834;BME280;8533;48.426;10.868;2023-04-01T09:30:37;94899.03;;;10.31;89.97
16834;BME280;8533;48.426;10.868;2023-04-01T09:36:03;94895.55;;;10.44;91.86
16834;BME280;8533;48.426;10.868;2023-04-01T09:41:12;94891.77;;;10.57;89.86
16834;BME280;8533;48.426;10.868;2023-04-01T09:48:58;94895.11;;;10.31;89.20
16834;BME280;8533;48.426;10.868;2023-04-01T09:51:32;94894.63;;;10.29;88.71
16834;BME280;8533;48.426;10.868;2023-04-01T09:54:01;94898.19;;;10.39;88.90
16834;BME280;8533;48.426;10.868;2023-04-01T10:07:56;94901.56;;;10.05;100.00
16834;BME280;8533;48.426;10.868;2023-04-01T10:10:38;94897.92;;;10.01;100.00
16834;BME280;8533;48.426;10.868;2023-04-01T10:13:11;94904.85;;;9.77;100.00
16834;BME280;8533;48.426;10.868;2023-04-01T10:24:30;94903.41;;;9.53;100.00
16834;BME280;8533;48.426;10.868;2023-04-01T10:26:58;94907.13;;;9.34;100.00
16834;BME280;8533;48.426;10.868;2023-04-01T10:29:29;94914.76;;;9.21;100.00
16834;BME280;8533;48.426;10.868;2023-04-01T10:32:11;94920.55;;;9.07;100.00
16834;BME280;8533;48.426;10.868;2023-04-01T10:52:36;94921.61;;;7.92;100.00
16834;BME280;8533;48.426;10.868;2023-04-01T10:58:29;94935.09;;;7.79;100.00
16834;BME280;8533;48.426;10.868;2023-04-01T11:15:31;94926.44;;;7.56;100.00
16834;BME280;8533;48.426;10.868;2023-04-01T11:21:23;94927.47;;;7.55;100.00
16834;BME280;8533;48.426;10.868;2023-04-01T11:23:50;94922.02;;;7.51;100.00
16834;BME280;8533;48.426;10.868;2023-04-01T11:26:30;94925.36;;;7.47;100.00
16834;BME280;8533;48.426;10.868;2023-04-01T11:29:08;94927.42;;;7.40;100.00
16834;BME280;8533;48.426;10.868;2023-04-01T11:31:35;94919.36;;;7.39;100.00
16834;BME280;8533;48.426;10.868;2023-04-01T11:42:48;94924.06;;;7.42;100.00
16834;BME280;8533;48.426;10.868;2023-04-01T11:45:34;94925.13;;;7.46;100.00
16834;BME280;8533;48.426;10.868;2023-04-01T11:50:52;94931.19;;;7.74;100.00
16834;BME280;8533;48.426;10.868;2023-04-01T12:13:35;94937.48;;;7.98;100.00
16834;BME280;8533;48.426;10.868;2023-04-01T12:18:58;94944.80;;;8.14;100.00
16834;BME280;8533;48.426;10.868;2023-04-01T12:21:45;94943.50;;;8.14;100.00
16834;BME280;8533;48.426;10.868;2023-04-01T12:24:25;94949.23;;;8.21;100.00
16834;BME280;8533;48.426;10.868;2023-04-01T12:29:48;94951.06;;;8.23;100.00
16834;BME280;8533;48.426;10.868;2023-04-01T12:32:17;94949.25;;;8.19;100.00
16834;BME280;8533;48.426;10.868;2023-04-01T12:37:25;94952.33;;;8.03;100.00
16834;BME280;8533;48.426;10.868;2023-04-01T12:42:59;94953.42;;;8.25;100.00
16834;BME280;8533;48.426;10.868;2023-04-01T12:45:29;94953.19;;;8.39;100.00
16834;BME280;8533;48.426;10.868;2023-04-01T12:54:20;94960.50;;;8.67;100.00
16834;BME280;8533;48.426;10.868;2023-04-01T13:07:52;94945.63;;;8.53;100.00
16834;BME280;8533;48.426;10.868;2023-04-01T13:13:43;94951.11;;;8.64;100.00
16834;BME280;8533;48.426;10.868;2023-04-01T13:19:03;94948.77;;;8.72;100.00
16834;BME280;8533;48.426;10.868;2023-04-01T13:21:38;94947.73;;;8.56;100.00
16834;BME280;8533;48.426;10.868;2023-04-01T13:35:02;94957.88;;;8.62;100.00
16834;BME280;8533;48.426;10.868;2023-04-01T13:42:49;94948.48;;;8.87;100.00
16834;BME280;8533;48.426;10.868;2023-04-01T13:45:19;94957.59;;;8.94;100.00
16834;BME280;8533;48.426;10.868;2023-04-01T13:50:54;94950.55;;;9.07;100.00
16834;BME280;8533;48.426;10.868;2023-04-01T14:01:55;94955.67;;;9.35;100.00
16834;BME280;8533;48.426;10.868;2023-04-01T14:04:32;94970.05;;;9.28;100.00
16834;BME280;8533;48.426;10.868;2023-04-01T14:09:34;94963.21;;;9.42;100.00
16834;BME280;8533;48.426;10.868;2023-04-01T14:12:25;94977.30;;;9.46;100.00
16834;BME280;8533;48.426;10.868;2023-04-01T14:15:07;94948.08;;;9.44;100.00
16834;BME280;8533;48.426;10.868;2023-04-01T14:20:33;94960.58;;;9.54;100.00
16834;BME280;8533;48.426;10.868;2023-04-01T14:28:36;94959.59;;;9.38;100.00
16834;BME280;8533;48.426;10.868;2023-04-01T14:39:49;94980.64;;;9.62;100.00
16834;BME280;8533;48.426;10.868;2023-04-01T14:50:20;94977.30;;;9.43;100.00
16834;BME280;8533;48.426;10.868;2023-04-01T14:52:49;94975.27;;;9.28;100.00
16834;BME280;8533;48.426;10.868;2023-04-01T14:55:27;94979.95;;;9.26;100.00
16834;BME280;8533;48.426;10.868;2023-04-01T14:57:59;94974.77;;;9.21;100.00
16834;BME280;8533;48.426;10.868;2023-04-01T15:00:30;94976.08;;;9.10;100.00
16834;BME280;8533;48.426;10.868;2023-04-01T15:03:02;94979.17;;;9.25;100.00
16834;BME280;8533;48.426;10.868;2023-04-01T15:08:14;94978.61;;;9.43;100.00
16834;BME280;8533;48.426;10.868;2023-04-01T15:16:25;94980.64;;;9.59;100.00
16834;BME280;8533;48.426;10.868;2023-04-01T15:22:01;94976.92;;;9.75;100.00
16834;BME280;8533;48.426;10.868;2023-04-01T15:27:34;94981.36;;;9.75;100.00
16834;BME280;8533;48.426;10.868;2023-04-01T15:38:25;94992.13;;;9.58;100.00
16834;BME280;8533;48.426;10.868;2023-04-01T15:40:54;94999.18;;;9.57;100.00
16834;BME280;8533;48.426;10.868;2023-04-01T15:43:45;95003.09;;;9.57;100.00
16834;BME280;8533;48.426;10.868;2023-04-01T15:46:46;95000.52;;;9.55;100.00
16834;BME280;8533;48.426;10.868;2023-04-01T15:49:39;94995.81;;;9.54;100.00
16834;BME280;8533;48.426;10.868;2023-04-01T15:55:26;94998.95;;;9.56;100.00
16834;BME280;8533;48.426;10.868;2023-04-01T16:01:02;94998.95;;;9.54;100.00
16834;BME280;8533;48.426;10.868;2023-04-01T16:06:33;94998.95;;;9.56;100.00
16834;BME280;8533;48.426;10.868;2023-04-01T16:12:03;95005.99;;;9.53;100.00
16834;BME280;8533;48.426;10.868;2023-04-01T16:14:44;95009.94;;;9.48;100.00
16834;BME280;8533;48.426;10.868;2023-04-01T16:17:29;95002.10;;;9.48;100.00
16834;BME280;8533;48.426;10.868;2023-04-01T16:22:48;95003.92;;;9.43;100.00
16834;BME280;8533;48.426;10.868;2023-04-01T16:25:31;95002.38;;;9.34;100.00
16834;BME280;8533;48.426;10.868;2023-04-01T16:30:55;95002.66;;;9.25;100.00
16834;BME280;8533;48.426;10.868;2023-04-01T16:33:37;95009.18;;;9.28;100.00
16834;BME280;8533;48.426;10.868;2023-04-01T16:36:24;95015.72;;;9.23;100.00
16834;BME280;8533;48.426;10.868;2023-04-01T16:39:08;95015.45;;;9.19;100.00
16834;BME280;8533;48.426;10.868;2023-04-01T16:41:41;95016.50;;;9.18;100.00
16834;BME280;8533;48.426;10.868;2023-04-01T16:44:24;95010.00;;;9.13;100.00
16834;BME280;8533;48.426;10.868;2023-04-01T16:46:58;95017.03;;;9.10;100.00
16834;BME280;8533;48.426;10.868;2023-04-01T16:49:42;95026.19;;;9.07;100.00
16834;BME280;8533;48.426;10.868;2023-04-01T16:57:24;95033.73;;;9.01;100.00
16834;BME280;8533;48.426;10.868;2023-04-01T17:02:38;94968.31;;;8.55;100.00
16834;BME280;8533;48.426;10.868;2023-04-01T17:05:08;95034.25;;;8.93;100.00
16834;BME280;8533;48.426;10.868;2023-04-01T17:10:59;95042.61;;;8.88;100.00
16834;BME280;8533;48.426;10.868;2023-04-01T17:19:01;95042.59;;;8.70;100.00
16834;BME280;8533;48.426;10.868;2023-04-01T17:24:38;95053.55;;;8.64;100.00
16834;BME280;8533;48.426;10.868;2023-04-01T17:33:03;95057.98;;;8.59;100.00
16834;BME280;8533;48.426;10.868;2023-04-01T17:49:36;95074.11;;;8.43;100.00
16834;BME280;8533;48.426;10.868;2023-04-01T17:54:47;95076.67;;;8.35;100.00
16834;BME280;8533;48.426;10.868;2023-04-01T18:00:26;95078.50;;;8.32;100.00
16834;BME280;8533;48.426;10.868;2023-04-01T18:05:55;95090.67;;;8.22;100.00
16834;BME280;8533;48.426;10.868;2023-04-01T18:11:30;95092.73;;;8.15;100.00
16834;BME280;8533;48.426;10.868;2023-04-01T18:14:13;95093.76;;;8.09;100.00
16834;BME280;8533;48.426;10.868;2023-04-01T18:22:37;95101.00;;;7.99;100.00
16834;BME280;8533;48.426;10.868;2023-04-01T18:27:53;95106.19;;;7.96;100.00
16834;BME280;8533;48.426;10.868;2023-04-01T18:30:21;95110.34;;;7.95;100.00
16834;BME280;8533;48.426;10.868;2023-04-01T18:32:52;95117.91;;;7.94;100.00
16834;BME280;8533;48.426;10.868;2023-04-01T18:35:29;95118.16;;;7.95;100.00
16834;BME280;8533;48.426;10.868;2023-04-01T18:37:59;95122.34;;;7.93;100.00
16834;BME280;8533;48.426;10.868;2023-04-01T18:40:48;95125.73;;;7.94;100.00
16834;BME280;8533;48.426;10.868;2023-04-01T18:46:29;95131.18;;;7.92;100.00
16834;BME280;8533;48.426;10.868;2023-04-01T18:48:52;95136.92;;;7.94;100.00
16834;BME280;8533;48.426;10.868;2023-04-01T18:54:12;95135.08;;;7.95;100.00
16834;BME280;8533;48.426;10.868;2023-04-01T18:56:43;95143.95;;;7.96;100.00
16834;BME280;8533;48.426;10.868;2023-04-01T18:59:16;95153.33;;;7.97;100.00
16834;BME280;8533;48.426;10.868;2023-04-01T19:02:08;95154.11;;;7.98;100.00
16834;BME280;8533;48.426;10.868;2023-04-01T19:07:43;95169.00;;;8.02;100.00
16834;BME280;8533;48.426;10.868;2023-04-01T19:15:46;95167.94;;;8.03;100.00
16834;BME280;8533;48.426;10.868;2023-04-01T19:18:25;95173.69;;;8.05;100.00
16834;BME280;8533;48.426;10.868;2023-04-01T19:21:04;95172.11;;;8.04;100.00
16834;BME280;8533;48.426;10.868;2023-04-01T19:23:56;95167.17;;;8.05;100.00
16834;BME280;8533;48.426;10.868;2023-04-01T19:26:29;95163.27;;;8.05;100.00
16834;BME280;8533;48.426;10.868;2023-04-01T19:34:22;95173.93;;;8.04;100.00
16834;BME280;8533;48.426;10.868;2023-04-01T19:36:55;95174.20;;;8.05;100.00
16834;BME280;8533;48.426;10.868;2023-04-01T19:42:09;95178.11;;;8.05;100.00
16834;BME280;8533;48.426;10.868;2023-04-01T19:44:48;95178.63;;;8.04;100.00
16834;BME280;8533;48.426;10.868;2023-04-01T19:52:39;95177.05;;;8.03;100.00
16834;BME280;8533;48.426;10.868;2023-04-01T19:58:16;95181.99;;;8.00;100.00
16834;BME280;8533;48.426;10.868;2023-04-01T20:00:52;95180.39;;;7.96;100.00
16834;BME280;8533;48.426;10.868;2023-04-01T20:03:25;95183.27;;;7.97;100.00
16834;BME280;8533;48.426;10.868;2023-04-01T20:05:57;95186.64;;;7.95;100.00
16834;BME280;8533;48.426;10.868;2023-04-01T20:09:10;95188.20;;;7.96;100.00
16834;BME280;8533;48.426;10.868;2023-04-01T20:14:56;95193.14;;;7.95;100.00